createdAt,value
2023-01-13T00:01:48.267Z,4.80
2023-01-13T00:04:15.426Z,5.50
2023-01-13T00:06:42.599Z,6.40
2023-01-13T00:09:09.825Z,5.70
2023-01-13T00:11:36.975Z,5.60
2023-01-13T00:14:04.121Z,6.50
2023-01-13T00:16:31.376Z,5.00
2023-01-13T00:18:58.512Z,6.00
2023-01-13T00:21:25.616Z,4.90
2023-01-13T00:23:54.180Z,4.60
2023-01-13T00:26:23.419Z,5.60
2023-01-13T00:28:51.027Z,5.30
2023-01-13T00:31:19.677Z,5.60
2023-01-13T00:33:49.071Z,5.00
2023-01-13T00:36:16.356Z,4.90
2023-01-13T00:38:43.931Z,7.20
2023-01-13T00:41:12.851Z,6.20
2023-01-13T00:43:40.107Z,5.70
2023-01-13T00:46:08.305Z,4.30
2023-01-13T00:48:35.734Z,4.50
2023-01-13T00:51:08.107Z,6.50
2023-01-13T00:53:36.955Z,5.20
2023-01-13T00:56:10.120Z,5.30
2023-01-13T00:58:37.296Z,4.70
2023-01-13T01:01:07.771Z,4.90
2023-01-13T01:03:35.199Z,5.50
2023-01-13T01:06:13.390Z,4.80
2023-01-13T01:08:40.765Z,5.90
2023-01-13T01:11:12.510Z,4.80
2023-01-13T01:13:39.861Z,4.80
2023-01-13T01:16:08.579Z,6.70
2023-01-13T01:18:36.575Z,5.10
2023-01-13T01:21:04.123Z,4.80
2023-01-13T01:23:31.734Z,5.20
2023-01-13T01:26:13.080Z,4.60
2023-01-13T01:28:40.372Z,6.60
2023-01-13T01:31:13.181Z,6.50
2023-01-13T01:33:41.445Z,6.10
2023-01-13T01:36:09.532Z,4.90
2023-01-13T01:38:36.591Z,4.80
2023-01-13T01:41:03.924Z,4.90
2023-01-13T01:44:00.009Z,4.50
2023-01-13T01:46:37.055Z,5.30
2023-01-13T01:49:39.873Z,6.30
2023-01-13T01:52:15.964Z,6.00
2023-01-13T01:54:47.926Z,5.10
2023-01-13T01:57:19.180Z,5.30
2023-01-13T01:59:46.425Z,5.70
2023-01-13T02:02:13.564Z,5.30
2023-01-13T02:04:41.669Z,5.70
2023-01-13T02:07:08.718Z,5.80
2023-01-13T02:09:35.868Z,4.90
2023-01-13T02:12:21.735Z,6.60
2023-01-13T02:14:48.894Z,5.20
2023-01-13T02:17:26.180Z,5.50
2023-01-13T02:20:14.937Z,5.90
2023-01-13T02:23:35.835Z,5.60
2023-01-13T02:26:22.138Z,6.60
2023-01-13T02:29:42.747Z,6.30
2023-01-13T02:32:15.001Z,5.90
2023-01-13T02:35:23.322Z,5.30
2023-01-13T02:37:50.371Z,6.30
2023-01-13T02:40:23.565Z,5.30
2023-01-13T02:43:36.013Z,5.20
2023-01-13T02:46:15.498Z,5.50
2023-01-13T02:48:43.691Z,5.50
2023-01-13T02:51:14.020Z,6.70
2023-01-13T02:53:44.132Z,6.30
2023-01-13T02:56:11.486Z,5.30
2023-01-13T02:58:38.640Z,6.30
2023-01-13T03:01:05.870Z,6.10
2023-01-13T03:03:33.039Z,6.20
2023-01-13T03:06:26.839Z,6.80
2023-01-13T03:09:03.797Z,6.00
2023-01-13T03:11:35.496Z,6.40
2023-01-13T03:14:21.343Z,6.20
2023-01-13T03:16:59.619Z,6.50
2023-01-13T03:19:35.864Z,6.60
2023-01-13T03:22:22.536Z,5.90
2023-01-13T03:25:17.834Z,6.80
2023-01-13T03:27:56.053Z,6.40
2023-01-13T03:30:33.491Z,6.20
2023-01-13T03:33:19.025Z,7.00
2023-01-13T03:35:47.798Z,6.10
2023-01-13T03:38:39.452Z,6.10
2023-01-13T03:43:55.965Z,5.90
2023-01-13T03:46:30.021Z,5.90
2023-01-13T03:48:57.621Z,6.50
2023-01-13T03:51:25.554Z,5.90
2023-01-13T03:53:56.021Z,5.60
2023-01-13T03:56:27.720Z,6.10
2023-01-13T03:58:54.981Z,6.00
2023-01-13T04:01:26.327Z,5.80
2023-01-13T04:04:01.737Z,5.70
2023-01-13T04:06:47.938Z,4.90
2023-01-13T04:09:35.436Z,5.80
2023-01-13T04:12:09.117Z,7.00
2023-01-13T04:14:36.197Z,6.30
2023-01-13T04:17:03.242Z,5.90
2023-01-13T04:19:31.426Z,5.60
2023-01-13T04:21:58.978Z,6.80
2023-01-13T04:24:26.228Z,5.70
2023-01-13T04:26:53.371Z,5.30
2023-01-13T04:29:20.468Z,5.40
2023-01-13T04:31:47.570Z,5.40
2023-01-13T04:34:14.809Z,6.10
2023-01-13T04:36:41.876Z,6.10
2023-01-13T04:39:09.032Z,5.10
2023-01-13T04:41:55.463Z,5.70
2023-01-13T04:44:22.568Z,6.20
2023-01-13T04:46:49.620Z,5.70
2023-01-13T04:49:16.769Z,7.50
2023-01-13T04:51:43.873Z,5.40
2023-01-13T04:54:11.589Z,6.30
2023-01-13T04:56:38.735Z,6.00
2023-01-13T04:59:05.884Z,5.40
2023-01-13T05:01:33.134Z,5.10
2023-01-13T05:04:00.438Z,6.10
2023-01-13T05:06:27.535Z,5.00
2023-01-13T05:08:54.684Z,5.40
2023-01-13T05:11:40.481Z,5.60
2023-01-13T05:14:26.256Z,5.60
2023-01-13T05:17:00.379Z,5.00
2023-01-13T05:19:32.091Z,5.20
2023-01-13T05:22:18.098Z,5.80
2023-01-13T05:25:03.943Z,5.80
2023-01-13T05:27:30.988Z,4.50
2023-01-13T05:29:58.315Z,5.40
2023-01-13T05:32:25.716Z,6.30
2023-01-13T05:34:52.846Z,5.30
2023-01-13T05:37:19.968Z,5.20
2023-01-13T05:40:05.659Z,6.00
2023-01-13T05:42:51.542Z,5.30
2023-01-13T05:45:18.637Z,5.40
2023-01-13T05:47:45.786Z,4.90
2023-01-13T05:50:12.969Z,5.50
2023-01-13T05:52:40.188Z,4.70
2023-01-13T05:55:07.856Z,4.70
2023-01-13T05:57:34.958Z,5.90
2023-01-13T06:00:02.555Z,6.30
2023-01-13T06:02:38.614Z,5.20
2023-01-13T06:05:06.031Z,6.20
2023-01-13T06:07:33.081Z,4.90
2023-01-13T06:10:00.195Z,4.50
2023-01-13T06:12:27.262Z,4.60
2023-01-13T06:14:54.325Z,4.60
2023-01-13T06:17:21.369Z,5.30
2023-01-13T06:19:48.421Z,4.50
2023-01-13T06:22:21.896Z,6.30
2023-01-13T06:24:53.878Z,4.50
2023-01-13T06:27:21.545Z,5.20
2023-01-13T06:29:48.794Z,5.10
2023-01-13T06:32:17.890Z,6.00
2023-01-13T06:34:47.906Z,5.10
2023-01-13T06:37:15.168Z,5.10
2023-01-13T06:39:42.362Z,5.40
2023-01-13T06:42:28.149Z,5.30
2023-01-13T06:44:55.349Z,4.70
2023-01-13T06:47:22.606Z,4.70
2023-01-13T06:49:49.649Z,5.90
2023-01-13T06:52:16.952Z,5.80
2023-01-13T06:54:44.184Z,5.00
2023-01-13T06:57:11.328Z,5.60
2023-01-13T06:59:38.661Z,4.90
2023-01-13T07:02:05.979Z,5.70
2023-01-13T07:04:33.168Z,5.60
2023-01-13T07:07:00.319Z,6.20
2023-01-13T07:09:27.361Z,5.90
2023-01-13T07:11:54.454Z,5.70
2023-01-13T07:14:40.116Z,5.50
2023-01-13T07:17:07.147Z,5.60
2023-01-13T07:19:34.198Z,5.40
2023-01-13T07:22:01.522Z,6.10
2023-01-13T07:24:28.708Z,4.90
2023-01-13T07:26:55.744Z,5.50
2023-01-13T07:29:22.892Z,5.30
2023-01-13T07:31:50.403Z,4.50
2023-01-13T07:34:17.702Z,4.60
2023-01-13T07:36:44.955Z,4.30
2023-01-13T07:39:12.024Z,5.70
2023-01-13T07:41:58.132Z,5.30
2023-01-13T07:44:27.821Z,5.40
2023-01-13T07:46:54.959Z,6.00
2023-01-13T07:49:22.037Z,5.60
2023-01-13T07:51:49.024Z,5.30
2023-01-13T07:54:16.100Z,5.90
2023-01-13T07:56:43.181Z,4.70
2023-01-13T07:59:10.296Z,5.70
2023-01-13T08:01:37.899Z,5.30
2023-01-13T08:04:05.130Z,4.50
2023-01-13T08:06:32.427Z,5.60
2023-01-13T08:08:59.457Z,5.30
2023-01-13T08:11:26.671Z,5.50
2023-01-13T08:13:58.082Z,6.10
2023-01-13T08:18:52.241Z,5.80
2023-01-13T08:21:19.309Z,5.30
2023-01-13T08:23:46.412Z,5.50
2023-01-13T08:26:15.512Z,5.40
2023-01-13T08:28:42.567Z,4.90
2023-01-13T08:31:14.495Z,5.60
2023-01-13T08:33:42.129Z,5.90
2023-01-13T08:36:10.562Z,6.50
2023-01-13T08:38:38.270Z,5.70
2023-01-13T08:41:12.540Z,5.00
2023-01-13T08:43:39.686Z,5.10
2023-01-13T08:46:07.049Z,6.10
2023-01-13T08:48:34.329Z,6.60
2023-01-13T08:51:03.020Z,6.60
2023-01-13T08:53:30.334Z,7.10
2023-01-13T08:55:57.425Z,6.20
2023-01-13T08:58:24.540Z,10.30
2023-01-13T09:00:51.588Z,9.10
2023-01-13T09:03:18.733Z,11.60
2023-01-13T09:05:45.984Z,11.00
2023-01-13T09:08:13.350Z,10.20
2023-01-13T09:10:40.806Z,7.30
2023-01-13T09:13:11.949Z,6.00
2023-01-13T09:15:40.509Z,6.10
2023-01-13T09:18:07.686Z,4.90
2023-01-13T09:20:34.728Z,6.70
2023-01-13T09:23:01.821Z,5.90
2023-01-13T09:25:28.923Z,6.70
2023-01-13T09:27:56.905Z,6.00
2023-01-13T09:30:24.619Z,7.50
2023-01-13T09:33:11.664Z,7.20
2023-01-13T09:35:38.815Z,6.50
2023-01-13T09:38:06.689Z,6.50
2023-01-13T09:40:33.838Z,6.40
2023-01-13T09:43:40.929Z,6.90
2023-01-13T09:46:41.929Z,6.10
2023-01-13T09:49:21.020Z,6.30
2023-01-13T09:51:54.734Z,7.20
2023-01-13T09:54:33.785Z,6.10
2023-01-13T09:57:01.065Z,6.90
2023-01-13T09:59:32.691Z,6.80
2023-01-13T10:02:03.946Z,7.30
2023-01-13T10:04:31.063Z,7.80
2023-01-13T10:07:00.903Z,6.70
2023-01-13T10:09:33.731Z,7.00
2023-01-13T10:12:19.840Z,6.50
2023-01-13T10:14:53.444Z,7.80
2023-01-13T10:17:32.875Z,6.30
2023-01-13T10:20:09.229Z,6.40
2023-01-13T10:23:15.289Z,6.10
2023-01-13T10:26:10.384Z,5.50
2023-01-13T10:28:37.747Z,6.10
2023-01-13T10:31:11.061Z,6.20
2023-01-13T10:33:38.231Z,5.50
2023-01-13T10:36:18.060Z,6.20
2023-01-13T10:38:46.568Z,6.00
2023-01-13T10:41:17.055Z,5.20
2023-01-13T10:44:02.380Z,5.90
2023-01-13T10:46:29.616Z,6.80
2023-01-13T10:48:58.474Z,5.50
2023-01-13T10:51:30.550Z,10.30
2023-01-13T10:54:01.840Z,11.20
2023-01-13T10:56:33.240Z,8.90
2023-01-13T11:01:37.519Z,5.60
2023-01-13T11:04:35.225Z,7.60
2023-01-13T11:07:03.580Z,10.70
2023-01-13T11:09:31.272Z,5.80
2023-01-13T11:11:58.834Z,6.30
2023-01-13T11:14:36.933Z,6.10
2023-01-13T11:17:10.098Z,7.80
2023-01-13T11:19:40.458Z,11.30
2023-01-13T11:22:11.073Z,10.10
2023-01-13T11:24:41.782Z,9.00
2023-01-13T11:27:18.201Z,5.70
2023-01-13T11:30:10.139Z,5.10
2023-01-13T11:32:41.427Z,7.90
2023-01-13T11:35:16.633Z,5.70
2023-01-13T11:37:45.656Z,5.90
2023-01-13T11:40:27.808Z,6.60
2023-01-13T11:43:11.232Z,7.20
2023-01-13T11:45:46.546Z,7.90
2023-01-13T11:48:21.287Z,7.30
2023-01-13T11:51:04.729Z,7.50
2023-01-13T11:53:53.003Z,9.10
2023-01-13T11:56:51.265Z,10.10
2023-01-13T11:59:52.149Z,10.50
2023-01-13T12:02:25.676Z,14.30
2023-01-13T12:05:28.694Z,19.30
2023-01-13T12:08:23.087Z,7.20
2023-01-13T12:10:54.146Z,5.80
2023-01-13T12:13:24.776Z,5.60
2023-01-13T12:15:58.270Z,6.10
2023-01-13T12:18:37.605Z,5.60
2023-01-13T12:21:14.163Z,7.20
2023-01-13T12:23:49.455Z,6.20
2023-01-13T12:26:16.941Z,7.60
2023-01-13T12:28:59.328Z,7.80
2023-01-13T12:31:26.532Z,7.20
2023-01-13T12:34:26.423Z,8.60
2023-01-13T12:36:56.091Z,7.60
2023-01-13T12:39:29.445Z,7.30
2023-01-13T12:42:40.435Z,5.80
2023-01-13T12:45:07.789Z,6.40
2023-01-13T12:47:44.605Z,6.60
2023-01-13T12:50:24.002Z,6.70
2023-01-13T12:52:54.622Z,5.30
2023-01-13T12:55:34.159Z,5.00
2023-01-13T12:58:07.432Z,5.60
2023-01-13T13:00:40.891Z,5.40
2023-01-13T13:03:19.488Z,5.60
2023-01-13T13:06:00.531Z,4.80
2023-01-13T13:08:55.686Z,5.80
2023-01-13T13:11:53.027Z,4.90
2023-01-13T13:14:55.764Z,5.40
2023-01-13T13:17:28.996Z,7.40
2023-01-13T13:19:56.646Z,8.10
2023-01-13T13:22:26.662Z,10.80
2023-01-13T13:24:57.714Z,8.90
2023-01-13T13:27:41.349Z,5.70
2023-01-13T13:30:20.632Z,4.90
2023-01-13T13:32:54.790Z,5.70
2023-01-13T13:35:52.015Z,5.30
2023-01-13T13:38:40.905Z,5.30
2023-01-13T13:41:36.912Z,5.40
2023-01-13T13:44:47.295Z,8.00
2023-01-13T13:47:14.580Z,17.20
2023-01-13T13:52:36.177Z,11.00
2023-01-13T13:55:08.525Z,6.50
2023-01-13T13:57:39.669Z,8.60
2023-01-13T14:00:28.628Z,8.60
2023-01-13T14:03:02.024Z,7.50
2023-01-13T14:05:36.185Z,7.20
2023-01-13T14:08:09.336Z,7.00
2023-01-13T14:10:37.947Z,6.80
2023-01-13T14:13:30.661Z,8.20
2023-01-13T14:16:07.616Z,5.30
2023-01-13T14:18:43.186Z,6.30
2023-01-13T14:21:27.996Z,5.30
2023-01-13T14:23:58.379Z,5.80
2023-01-13T14:26:27.057Z,4.80
2023-01-13T14:28:54.559Z,36.40
2023-01-13T14:31:21.694Z,37.60
2023-01-13T14:33:59.776Z,35.50
2023-01-13T14:36:33.053Z,69.60
2023-01-13T14:39:03.298Z,26.10
2023-01-13T14:48:35.957Z,17.70
2023-01-13T14:51:05.905Z,8.00
2023-01-13T14:53:39.722Z,8.20
2023-01-13T14:56:42.341Z,7.80
2023-01-13T14:59:31.461Z,5.40
2023-01-13T15:01:58.886Z,6.20
2023-01-13T15:04:34.261Z,6.70
2023-01-13T15:07:01.518Z,7.00
2023-01-13T15:09:31.357Z,7.30
2023-01-13T15:11:59.006Z,6.50
2023-01-13T15:14:27.975Z,6.60
2023-01-13T15:16:56.032Z,5.80
2023-01-13T15:19:23.113Z,6.50
2023-01-13T15:21:50.193Z,6.60
2023-01-13T15:24:17.290Z,6.80
2023-01-13T15:26:44.452Z,5.70
2023-01-13T15:29:14.723Z,5.30
2023-01-13T15:31:42.635Z,11.20
2023-01-13T15:34:09.787Z,10.00
2023-01-13T15:36:38.162Z,5.90
2023-01-13T15:39:05.222Z,6.00
2023-01-13T15:41:51.469Z,5.80
2023-01-13T15:44:37.202Z,7.00
2023-01-13T15:47:06.747Z,6.30
2023-01-13T15:49:41.305Z,9.10
2023-01-13T15:52:19.333Z,7.70
2023-01-13T15:54:46.554Z,12.10
2023-01-13T15:57:24.948Z,18.10
2023-01-13T15:59:53.797Z,9.50
2023-01-13T16:02:22.795Z,12.60
2023-01-13T16:04:51.612Z,8.20
2023-01-13T16:07:18.861Z,5.50
2023-01-13T16:09:46.319Z,5.30
2023-01-13T16:12:13.635Z,5.70
2023-01-13T16:14:40.762Z,6.00
2023-01-13T16:17:16.560Z,5.40
2023-01-13T16:19:44.271Z,5.20
2023-01-13T16:22:14.210Z,5.50
2023-01-13T16:24:41.619Z,4.60
2023-01-13T16:27:22.575Z,5.70
2023-01-13T16:29:50.140Z,5.90
2023-01-13T16:32:17.397Z,4.90
2023-01-13T16:34:44.653Z,5.30
2023-01-13T16:37:32.051Z,6.10
2023-01-13T16:39:59.231Z,6.40
2023-01-13T16:42:26.451Z,6.40
2023-01-13T16:44:53.488Z,5.80
2023-01-13T16:47:20.593Z,6.40
2023-01-13T16:49:47.643Z,4.80
2023-01-13T16:52:14.821Z,6.00
2023-01-13T16:54:42.150Z,4.90
2023-01-13T16:57:12.981Z,5.80
2023-01-13T16:59:40.140Z,5.70
2023-01-13T17:02:19.268Z,5.50
2023-01-13T17:04:47.831Z,5.50
2023-01-13T17:07:17.055Z,5.00
2023-01-13T17:09:44.138Z,3.90
2023-01-13T17:12:11.911Z,4.20
2023-01-13T17:14:38.870Z,4.40
2023-01-13T17:17:05.995Z,4.30
2023-01-13T17:19:33.358Z,4.90
2023-01-13T17:22:00.378Z,4.50
2023-01-13T17:24:29.479Z,4.90
2023-01-13T17:26:57.658Z,4.60
2023-01-13T17:29:26.762Z,4.30
2023-01-13T17:31:53.952Z,3.90
2023-01-13T17:34:21.413Z,4.40
2023-01-13T17:36:48.736Z,3.30
2023-01-13T17:39:20.755Z,3.30
2023-01-13T17:41:48.016Z,4.30
2023-01-13T17:44:16.254Z,3.90
2023-01-13T17:46:43.750Z,4.50
2023-01-13T17:49:14.754Z,4.50
2023-01-13T17:51:41.940Z,4.80
2023-01-13T17:54:12.534Z,4.20
2023-01-13T17:56:40.649Z,4.50
2023-01-13T17:59:10.197Z,4.60
2023-01-13T18:01:38.130Z,4.30
2023-01-13T18:04:14.189Z,4.80
2023-01-13T18:06:41.186Z,4.40
2023-01-13T18:09:08.282Z,4.30
2023-01-13T18:11:35.443Z,4.20
2023-01-13T18:14:02.885Z,4.30
2023-01-13T18:16:30.781Z,3.70
2023-01-13T18:19:19.390Z,4.40
2023-01-13T18:22:05.792Z,5.10
2023-01-13T18:24:51.500Z,3.90
2023-01-13T18:27:21.451Z,4.10
2023-01-13T18:29:50.267Z,4.10
2023-01-13T18:32:17.438Z,6.00
2023-01-13T18:34:44.479Z,4.40
2023-01-13T18:37:12.156Z,4.60
2023-01-13T18:39:39.310Z,3.90
2023-01-13T18:42:25.564Z,4.70
2023-01-13T18:44:57.350Z,4.10
2023-01-13T18:47:25.682Z,5.10
2023-01-13T18:49:52.847Z,4.30
2023-01-13T18:52:19.886Z,4.00
2023-01-13T18:54:47.648Z,4.60
2023-01-13T18:57:15.568Z,4.40
2023-01-13T18:59:42.707Z,4.50
2023-01-13T19:02:15.130Z,5.20
2023-01-13T19:04:42.843Z,4.30
2023-01-13T19:07:13.169Z,4.60
2023-01-13T19:09:42.282Z,4.90
2023-01-13T19:12:11.898Z,4.00
2023-01-13T19:14:40.633Z,4.60
2023-01-13T19:17:11.340Z,4.40
2023-01-13T19:19:45.888Z,4.40
2023-01-13T19:22:13.892Z,4.00
2023-01-13T19:24:42.295Z,4.60
2023-01-13T19:27:10.239Z,4.50
2023-01-13T19:29:37.390Z,4.80
2023-01-13T19:32:09.143Z,5.60
2023-01-13T19:34:36.610Z,4.00
2023-01-13T19:37:04.106Z,4.80
2023-01-13T19:39:31.158Z,4.80
2023-01-13T19:42:24.576Z,4.50
2023-01-13T19:45:11.241Z,5.10
2023-01-13T19:47:39.160Z,6.00
2023-01-13T19:50:08.362Z,4.30
2023-01-13T19:52:35.719Z,5.00
2023-01-13T19:55:02.802Z,5.50
2023-01-13T19:57:30.007Z,4.70
2023-01-13T19:59:57.155Z,5.00
2023-01-13T20:02:31.826Z,6.30
2023-01-13T20:05:00.305Z,5.50
2023-01-13T20:07:29.335Z,4.90
2023-01-13T20:09:56.760Z,5.70
2023-01-13T20:12:27.711Z,5.90
2023-01-13T20:15:00.099Z,6.40
2023-01-13T20:17:27.549Z,5.30
2023-01-13T20:19:54.843Z,6.60
2023-01-13T20:22:21.988Z,6.40
2023-01-13T20:24:55.081Z,6.20
2023-01-13T20:27:24.128Z,6.70
2023-01-13T20:29:51.332Z,6.10
2023-01-13T20:32:18.377Z,6.10
2023-01-13T20:34:45.642Z,5.90
2023-01-13T20:37:12.771Z,6.50
2023-01-13T20:39:43.322Z,6.80
2023-01-13T20:42:29.293Z,6.20
2023-01-13T20:44:57.170Z,5.20
2023-01-13T20:47:24.697Z,5.30
2023-01-13T20:49:52.756Z,6.10
2023-01-13T20:52:20.050Z,6.40
2023-01-13T20:54:47.195Z,5.90
2023-01-13T20:57:14.419Z,5.60
2023-01-13T20:59:41.602Z,5.40
2023-01-13T21:02:13.297Z,6.50
2023-01-13T21:04:40.719Z,6.50
2023-01-13T21:07:08.064Z,5.30
2023-01-13T21:09:35.201Z,5.20
2023-01-13T21:12:21.107Z,5.20
2023-01-13T21:15:07.227Z,6.40
2023-01-13T21:17:53.096Z,5.90
2023-01-13T21:20:20.161Z,5.80
2023-01-13T21:22:48.320Z,5.10
2023-01-13T21:25:15.972Z,5.60
2023-01-13T21:27:44.261Z,7.90
2023-01-13T21:30:15.129Z,5.60
2023-01-13T21:32:43.793Z,5.30
2023-01-13T21:35:11.458Z,5.50
2023-01-13T21:37:39.028Z,5.60
2023-01-13T21:40:07.852Z,5.40
2023-01-13T21:42:53.679Z,5.30
2023-01-13T21:45:39.457Z,6.60
2023-01-13T21:48:07.299Z,5.70
2023-01-13T21:50:34.616Z,5.40
2023-01-13T21:53:01.830Z,5.90
2023-01-13T21:55:29.153Z,5.60
2023-01-13T21:58:14.668Z,5.80
2023-01-13T22:00:43.209Z,5.80
2023-01-13T22:03:11.531Z,5.20
2023-01-13T22:05:38.736Z,5.50
2023-01-13T22:08:05.892Z,6.70
2023-01-13T22:10:34.304Z,6.10
2023-01-13T22:13:21.871Z,6.50
2023-01-13T22:15:48.921Z,5.70
2023-01-13T22:18:18.308Z,4.90
2023-01-13T22:20:46.022Z,5.40
2023-01-13T22:23:13.133Z,5.40
2023-01-13T22:25:40.108Z,7.20
2023-01-13T22:28:09.531Z,5.30
2023-01-13T22:30:36.757Z,5.80
2023-01-13T22:33:03.975Z,7.70
2023-01-13T22:35:31.140Z,5.70
2023-01-13T22:37:58.502Z,4.80
2023-01-13T22:40:25.546Z,5.00
2023-01-13T22:42:52.604Z,7.00
2023-01-13T22:45:19.841Z,6.10
2023-01-13T22:47:46.988Z,5.90
2023-01-13T22:50:14.043Z,6.10
2023-01-13T22:52:41.108Z,6.70
2023-01-13T22:55:08.622Z,6.50
2023-01-13T22:57:46.613Z,6.40
2023-01-13T23:00:15.122Z,5.40
2023-01-13T23:02:42.284Z,5.60
2023-01-13T23:05:09.574Z,5.40
2023-01-13T23:07:36.623Z,5.70
2023-01-13T23:10:04.666Z,5.80
2023-01-13T23:12:31.644Z,6.90
2023-01-13T23:14:58.665Z,5.90
2023-01-13T23:17:25.828Z,5.90
2023-01-13T23:19:52.944Z,6.20
2023-01-13T23:22:20.094Z,7.50
2023-01-13T23:24:47.220Z,6.70
2023-01-13T23:27:14.199Z,5.80
2023-01-13T23:29:41.542Z,5.40
2023-01-13T23:32:08.592Z,5.20
2023-01-13T23:34:35.604Z,5.50
2023-01-13T23:37:02.690Z,5.80
2023-01-13T23:39:29.738Z,6.40
2023-01-13T23:41:56.890Z,5.90
2023-01-13T23:44:23.946Z,5.50
2023-01-13T23:46:51.084Z,5.40
2023-01-13T23:49:18.339Z,6.40
2023-01-13T23:51:45.586Z,5.70
2023-01-13T23:54:12.634Z,5.10
2023-01-13T23:56:39.783Z,5.20
2023-01-13T23:59:07.041Z,5.30
